Time;durP1;ratioP1;P1;durP2;ratioP2;P2;SDS_P1;SDS_P2;PMS_P1;PMS_P2;Temp;Humidity;BMP_temperature;BMP_pressure;BME280_temperature;BME280_humidity;BME280_pressure;Samples;Min_cycle;Max_cycle;Signal;HPM_P1;HPM_P2
2022/02/21 00:00:42;;;;;;;39.65;25.55;;;;;;;4.01;100.00;97695.22;5088716;28;20029;-74
2022/02/21 00:03:07;;;;;;;52.20;32.65;;;;;;;3.93;100.00;97687.59;5084832;28;20034;-76
2022/02/21 00:05:34;;;;;;;47.80;29.98;;;;;;;3.92;100.00;97680.53;5088467;28;20028;-76
2022/02/21 00:07:59;;;;;;;43.58;26.20;;;;;;;3.99;100.00;97670.31;5093150;28;20370;-75
2022/02/21 00:10:25;;;;;;;43.90;25.42;;;;;;;3.96;100.00;97675.44;5093325;28;20028;-75
2022/02/21 00:12:51;;;;;;;39.35;25.13;;;;;;;4.09;100.00;97659.56;5099524;28;20433;-75
2022/02/21 00:15:23;;;;;;;42.75;25.17;;;;;;;4.18;100.00;97660.69;5091864;28;20028;-76
2022/02/21 00:17:48;;;;;;;44.65;25.75;;;;;;;4.20;100.00;97665.84;5091788;28;20058;-74
2022/02/21 00:20:14;;;;;;;39.00;23.70;;;;;;;4.25;100.00;97661.28;5081694;28;20020;-76
2022/02/21 00:22:40;;;;;;;37.53;23.58;;;;;;;4.18;100.00;97652.59;5091487;28;20028;-76
2022/02/21 00:25:05;;;;;;;38.55;24.75;;;;;;;4.28;100.00;97644.53;5091019;28;20050;-77
2022/02/21 00:27:31;;;;;;;36.97;22.92;;;;;;;4.27;100.00;97632.06;5073188;28;20036;-76
2022/02/21 00:29:56;;;;;;;43.85;24.67;;;;;;;4.41;100.00;97634.28;5069841;28;20021;-75
2022/02/21 00:32:22;;;;;;;40.65;23.92;;;;;;;4.45;100.00;97627.28;5083094;28;20058;-75
2022/02/21 00:34:47;;;;;;;37.10;23.80;;;;;;;4.51;100.00;97626.22;5085909;28;20036;-74
2022/02/21 00:37:13;;;;;;;37.08;22.75;;;;;;;4.58;100.00;97624.88;5090705;28;20772;-76
2022/02/21 00:39:39;;;;;;;41.17;23.48;;;;;;;4.54;100.00;97623.78;5083864;28;20111;-76
2022/02/21 00:42:05;;;;;;;37.80;24.58;;;;;;;4.57;100.00;97630.59;5077268;28;20170;-75
2022/02/21 00:44:33;;;;;;;38.08;24.50;;;;;;;4.56;100.00;97624.34;5077454;28;20024;-75
2022/02/21 00:47:00;;;;;;;37.05;22.25;;;;;;;4.55;100.00;97617.28;5084280;28;20472;-76
2022/02/21 00:49:26;;;;;;;41.05;23.58;;;;;;;4.55;100.00;97609.16;5081303;28;20036;-75
2022/02/21 00:51:51;;;;;;;35.30;23.75;;;;;;;4.44;100.00;97612.09;5084944;28;20021;-75
2022/02/21 00:54:17;;;;;;;44.38;24.98;;;;;;;4.40;100.00;97608.28;5086322;28;20020;-75
2022/02/21 00:56:42;;;;;;;40.45;25.35;;;;;;;4.41;100.00;97602.63;5082121;28;20057;-75
2022/02/21 00:59:08;;;;;;;41.78;27.15;;;;;;;4.49;100.00;97593.97;5069035;28;20087;-75
2022/02/21 01:01:33;;;;;;;39.97;25.45;;;;;;;4.60;100.00;97600.25;5070913;28;20025;-75
2022/02/21 01:03:58;;;;;;;42.22;26.65;;;;;;;4.60;100.00;97595.66;5073415;28;20074;-77
2022/02/21 01:06:24;;;;;;;39.90;23.52;;;;;;;4.61;100.00;97588.31;5074278;28;20054;-75
2022/02/21 01:08:49;;;;;;;36.05;23.60;;;;;;;4.73;100.00;97578.09;5070578;28;20036;-75
2022/02/21 01:11:15;;;;;;;39.25;25.60;;;;;;;4.68;100.00;97575.34;5068971;28;20036;-75
2022/02/21 01:13:41;;;;;;;38.80;24.52;;;;;;;4.67;100.00;97574.53;5084696;28;20430;-75
2022/02/21 01:16:06;;;;;;;44.40;26.48;;;;;;;4.61;100.00;97574.78;5090107;28;20423;-74
2022/02/21 01:18:32;;;;;;;40.10;25.38;;;;;;;4.65;100.00;97567.75;5090426;28;20112;-74
2022/02/21 01:20:58;;;;;;;38.80;23.77;;;;;;;4.69;100.00;97575.09;5090524;28;20040;-78
2022/02/21 01:23:23;;;;;;;40.15;25.75;;;;;;;4.66;100.00;97566.69;5090157;28;20024;-75
2022/02/21 01:25:48;;;;;;;40.85;24.80;;;;;;;4.69;100.00;97563.44;5091634;28;20388;-75
2022/02/21 01:28:14;;;;;;;46.33;25.45;;;;;;;4.79;100.00;97563.47;5090145;28;20025;-76
2022/02/21 01:30:40;;;;;;;46.33;26.17;;;;;;;4.76;100.00;97553.97;5088941;28;20038;-74
2022/02/21 01:33:05;;;;;;;44.15;26.45;;;;;;;4.76;100.00;97561.31;5090413;28;20047;-75
2022/02/21 01:35:31;;;;;;;38.47;24.77;;;;;;;4.78;100.00;97551.00;5090257;28;20051;-74
2022/02/21 01:37:56;;;;;;;40.60;25.58;;;;;;;4.73;100.00;97551.78;5090351;28;20115;-74
2022/02/21 01:40:22;;;;;;;39.17;24.70;;;;;;;4.68;100.00;97542.84;5090275;28;20039;-74
2022/02/21 01:42:48;;;;;;;41.00;26.40;;;;;;;4.67;100.00;97549.34;5091065;28;20032;-74
2022/02/21 01:45:13;;;;;;;40.40;25.10;;;;;;;4.63;100.00;97535.53;5094226;28;20035;-74
2022/02/21 01:47:39;;;;;;;42.35;26.00;;;;;;;4.75;100.00;97525.28;5092521;28;20107;-76
2022/02/21 01:50:05;;;;;;;38.90;23.42;;;;;;;4.77;100.00;97525.81;5093284;28;20027;-75
2022/02/21 01:52:31;;;;;;;38.33;24.88;;;;;;;4.79;100.00;97518.22;5093167;28;20385;-74
2022/02/21 01:54:57;;;;;;;37.33;24.27;;;;;;;4.76;100.00;97507.91;5093872;28;20113;-76
2022/02/21 01:57:25;;;;;;;40.95;24.20;;;;;;;4.83;100.00;97503.06;5093505;28;20106;-74
2022/02/21 01:59:50;;;;;;;38.47;23.83;;;;;;;4.83;100.00;97485.97;5093817;28;20031;-75
2022/02/21 02:02:15;;;;;;;38.72;24.17;;;;;;;4.88;100.00;97485.19;5093586;28;20393;-75
2022/02/21 02:04:41;;;;;;;35.35;22.95;;;;;;;4.87;100.00;97481.66;5093410;28;20035;-75
2022/02/21 02:07:06;;;;;;;36.33;23.25;;;;;;;4.83;100.00;97475.16;5093233;28;20031;-75
2022/02/21 02:09:32;;;;;;;35.75;23.70;;;;;;;4.90;100.00;97472.97;5093401;28;20496;-74
2022/02/21 02:11:57;;;;;;;36.15;23.15;;;;;;;4.86;100.00;97474.59;5093207;28;20016;-75
2022/02/21 02:14:37;;;;;;;35.75;23.52;;;;;;;4.88;100.00;97469.75;5092027;28;20131;-74
2022/02/21 02:17:12;;;;;;;38.30;24.70;;;;;;;4.97;100.00;97470.00;5082101;28;20024;-74
2022/02/21 02:19:38;;;;;;;48.95;25.80;;;;;;;4.96;100.00;97450.22;5090211;28;20081;-74
2022/02/21 02:22:09;;;;;;;44.67;25.80;;;;;;;4.97;100.00;97445.63;5090639;28;20481;-75
2022/02/21 02:24:36;;;;;;;43.78;25.33;;;;;;;5.00;100.00;97445.88;5072370;28;20021;-73
2022/02/21 02:27:01;;;;;;;38.78;24.10;;;;;;;5.01;100.00;97444.78;5072353;28;20033;-74
2022/02/21 02:29:27;;;;;;;37.15;22.92;;;;;;;5.09;100.00;97446.97;5071187;28;20032;-74
2022/02/21 02:31:54;;;;;;;37.83;22.98;;;;;;;5.10;100.00;97436.94;5072460;28;20030;-75
2022/02/21 02:34:19;;;;;;;37.88;23.02;;;;;;;5.12;100.00;97432.88;5076962;28;20107;-75
2022/02/21 02:36:47;;;;;;;38.63;23.25;;;;;;;5.08;100.00;97425.53;5091222;28;20540;-75
2022/02/21 02:39:14;;;;;;;37.40;24.85;;;;;;;5.03;100.00;97426.38;5092236;28;20024;-74
2022/02/21 02:41:43;;;;;;;44.03;23.73;;;;;;;5.05;100.00;97421.47;5092382;28;20489;-74
2022/02/21 02:44:08;;;;;;;36.35;23.98;;;;;;;5.03;100.00;97422.84;5092253;28;20028;-74
2022/02/21 02:46:34;;;;;;;41.17;24.85;;;;;;;4.99;100.00;97414.44;5092612;28;20039;-74
2022/02/21 02:48:59;;;;;;;35.80;22.90;;;;;;;5.00;100.00;97415.28;5092378;28;20024;-75
2022/02/21 02:51:25;;;;;;;37.95;23.58;;;;;;;4.99;100.00;97408.22;5092312;28;20078;-75
2022/02/21 02:53:50;;;;;;;38.45;24.27;;;;;;;4.99;100.00;97400.91;5091538;28;20032;-74
2022/02/21 02:56:16;;;;;;;35.00;21.58;;;;;;;5.04;100.00;97395.50;5092085;28;20020;-75
2022/02/21 02:58:41;;;;;;;35.53;22.50;;;;;;;5.01;100.00;97385.16;5092155;28;20107;-75
2022/02/21 03:01:07;;;;;;;37.38;23.40;;;;;;;5.00;100.00;97385.47;5091982;28;20051;-75
2022/02/21 03:03:33;;;;;;;38.88;23.52;;;;;;;4.94;100.00;97379.25;5091945;28;20024;-75
2022/02/21 03:05:58;;;;;;;38.10;21.05;;;;;;;4.98;100.00;97368.66;5091953;28;20035;-74
2022/02/21 03:08:25;;;;;;;35.05;20.58;;;;;;;5.00;100.00;97372.72;5092005;28;20052;-74
2022/02/21 03:10:50;;;;;;;32.67;20.27;;;;;;;5.09;100.00;97373.78;5088371;28;20077;-74
2022/02/21 03:13:16;;;;;;;35.35;18.98;;;;;;;5.16;100.00;97370.78;5073052;28;20036;-75
2022/02/21 03:15:41;;;;;;;27.17;16.67;;;;;;;5.26;100.00;97359.94;5093029;28;20084;-75
2022/02/21 03:18:09;;;;;;;30.63;17.90;;;;;;;5.36;100.00;97363.41;5096644;28;20469;-78
2022/02/21 03:20:34;;;;;;;32.25;18.45;;;;;;;5.54;100.00;97363.91;5090075;28;20059;-76
2022/02/21 03:23:00;;;;;;;30.52;17.05;;;;;;;5.70;100.00;97354.59;5096200;28;20103;-75
2022/02/21 03:25:25;;;;;;;30.92;16.67;;;;;;;5.81;100.00;97358.88;5098340;28;20023;-74
2022/02/21 03:27:51;;;;;;;31.20;17.80;;;;;;;5.93;100.00;97356.66;5097465;28;20106;-75
2022/02/21 03:30:16;;;;;;;32.47;18.67;;;;;;;5.94;100.00;97339.28;5091770;28;20077;-75
2022/02/21 03:32:41;;;;;;;32.38;18.23;;;;;;;5.74;100.00;97340.19;5091460;28;20384;-75
2022/02/21 03:35:07;;;;;;;29.50;17.20;;;;;;;5.82;100.00;97333.38;5090336;28;20027;-74
2022/02/21 03:37:35;;;;;;;29.52;17.20;;;;;;;5.87;100.00;97325.22;5091227;28;20040;-75
2022/02/21 03:40:01;;;;;;;30.92;17.40;;;;;;;5.92;100.00;97327.88;5090242;28;20032;-75
2022/02/21 03:42:26;;;;;;;30.05;17.20;;;;;;;5.91;100.00;97315.44;5091179;28;20110;-75
2022/02/21 03:44:52;;;;;;;29.65;18.05;;;;;;;5.91;100.00;97318.16;5091053;28;20028;-75
2022/02/21 03:47:17;;;;;;;32.22;17.20;;;;;;;6.04;100.00;97325.66;5091471;28;20024;-75
2022/02/21 03:49:42;;;;;;;27.52;16.60;;;;;;;5.97;100.00;97317.03;5091095;28;20024;-75
2022/02/21 03:52:08;;;;;;;33.92;18.15;;;;;;;5.92;100.00;97319.75;5089750;28;20052;-74
2022/02/21 03:54:33;;;;;;;31.45;17.23;;;;;;;5.95;100.00;97319.22;5089558;28;20028;-75
2022/02/21 03:56:59;;;;;;;35.65;17.63;;;;;;;6.00;100.00;97316.47;5091143;28;20066;-74
2022/02/21 03:59:24;;;;;;;31.38;16.50;;;;;;;5.93;100.00;97310.53;5090824;28;20069;-75
2022/02/21 04:01:50;;;;;;;34.15;18.73;;;;;;;6.07;100.00;97299.84;5089356;28;20501;-75
2022/02/21 04:04:15;;;;;;;37.47;19.92;;;;;;;6.10;100.00;97294.69;5106738;28;20389;-76
2022/02/21 04:06:41;;;;;;;37.15;19.98;;;;;;;6.21;100.00;97284.53;5089896;28;20396;-75
2022/02/21 04:09:06;;;;;;;39.20;19.17;;;;;;;6.24;100.00;97281.25;5089635;28;20596;-75
2022/02/21 04:11:32;;;;;;;40.72;22.40;;;;;;;6.26;100.00;97266.31;5093006;28;20469;-74
2022/02/21 04:13:57;;;;;;;43.78;22.73;;;;;;;6.35;100.00;97261.06;5090811;28;20024;-75
2022/02/21 04:16:23;;;;;;;43.20;20.67;;;;;;;6.40;100.00;97256.41;5091232;28;20028;-75
2022/02/21 04:18:48;;;;;;;50.65;23.73;;;;;;;6.51;100.00;97265.28;5091010;28;20035;-75
2022/02/21 04:21:13;;;;;;;43.83;22.75;;;;;;;6.52;100.00;97263.34;5090712;28;20023;-75
2022/02/21 04:23:39;;;;;;;50.33;24.08;;;;;;;6.65;100.00;97257.25;5090752;28;20118;-75
2022/02/21 04:26:04;;;;;;;51.88;25.73;;;;;;;6.65;100.00;97263.50;5090778;28;20045;-75
2022/02/21 04:28:29;;;;;;;48.38;24.52;;;;;;;6.69;100.00;97258.28;5091010;28;20489;-75
2022/02/21 04:30:55;;;;;;;47.65;23.80;;;;;;;6.72;100.00;97258.53;5090981;28;20112;-75
2022/02/21 04:33:20;;;;;;;53.60;26.58;;;;;;;6.79;100.00;97247.31;5089358;28;20472;-75
2022/02/21 04:35:45;;;;;;;53.45;26.33;;;;;;;6.80;100.00;97249.75;5090750;28;20024;-74
2022/02/21 04:38:12;;;;;;;46.67;24.48;;;;;;;6.77;100.00;97238.63;5089628;28;20024;-75
2022/02/21 04:40:38;;;;;;;48.70;24.65;;;;;;;6.84;100.00;97239.91;5089276;28;20055;-75
2022/02/21 04:43:03;;;;;;;51.50;25.85;;;;;;;6.86;100.00;97240.44;5089512;28;20101;-75
2022/02/21 04:45:29;;;;;;;53.83;26.67;;;;;;;6.87;100.00;97227.66;5090988;28;20038;-75
2022/02/21 04:47:54;;;;;;;56.60;27.35;;;;;;;6.91;100.00;97237.66;5091159;28;20043;-75
2022/02/21 04:50:20;;;;;;;53.40;27.55;;;;;;;6.94;100.00;97226.22;5090707;28;20066;-75
2022/02/21 04:52:45;;;;;;;53.40;26.90;;;;;;;6.95;100.00;97232.47;5090516;28;20012;-75
2022/02/21 04:55:13;;;;;;;57.80;28.77;;;;;;;6.95;100.00;97227.03;5090626;28;20112;-74
2022/02/21 04:57:39;;;;;;;61.85;29.40;;;;;;;6.99;100.00;97222.63;5090460;28;20093;-75
2022/02/21 05:00:08;;;;;;;50.63;27.45;;;;;;;7.11;100.00;97228.44;5090621;28;20489;-75
2022/02/21 05:02:33;;;;;;;63.65;29.38;;;;;;;7.18;100.00;97226.19;5090549;28;20020;-75
2022/02/21 05:04:59;;;;;;;63.75;30.98;;;;;;;7.17;100.00;97204.72;5090830;28;20023;-78
2022/02/21 05:07:24;;;;;;;57.00;30.13;;;;;;;7.15;100.00;97202.28;5092815;28;20111;-75
2022/02/21 05:09:49;;;;;;;62.47;31.60;;;;;;;7.12;100.00;97202.88;5090386;28;20082;-75
2022/02/21 05:12:15;;;;;;;60.60;29.70;;;;;;;7.19;100.00;97180.75;5089246;28;20028;-75
2022/02/21 05:14:41;;;;;;;60.47;30.00;;;;;;;7.26;100.00;97187.47;5090617;28;20031;-73
2022/02/21 05:17:06;;;;;;;61.35;30.95;;;;;;;7.27;100.00;97178.19;5092335;28;20443;-74
2022/02/21 05:19:32;;;;;;;67.15;32.97;;;;;;;7.27;100.00;97180.91;5094251;28;20024;-74
2022/02/21 05:21:57;;;;;;;55.15;28.83;;;;;;;7.25;100.00;97174.16;5094222;28;20088;-74
2022/02/21 05:24:23;;;;;;;55.65;28.60;;;;;;;7.22;100.00;97170.13;5094506;28;20021;-74
2022/02/21 05:26:49;;;;;;;55.92;28.95;;;;;;;7.28;100.00;97166.22;5095123;28;20392;-74
2022/02/21 05:29:14;;;;;;;59.45;31.02;;;;;;;7.21;100.00;97157.59;5099038;28;20056;-75
2022/02/21 05:31:40;;;;;;;55.60;28.02;;;;;;;7.19;100.00;97161.72;5096688;28;20024;-74
2022/02/21 05:34:05;;;;;;;54.63;27.67;;;;;;;7.09;100.00;97138.22;5094397;28;20043;-74
2022/02/21 05:36:31;;;;;;;49.65;25.48;;;;;;;6.97;100.00;97140.53;5092498;28;20024;-74
2022/02/21 05:38:56;;;;;;;48.70;25.38;;;;;;;6.81;100.00;97133.69;5094299;28;20070;-74
2022/02/21 05:41:21;;;;;;;48.15;24.88;;;;;;;6.77;100.00;97129.94;5092843;28;20393;-74
2022/02/21 05:43:47;;;;;;;52.92;26.50;;;;;;;6.69;100.00;97134.13;5092621;28;20043;-74
2022/02/21 05:46:12;;;;;;;42.00;22.73;;;;;;;6.48;100.00;97138.19;5094357;28;20059;-76
2022/02/21 05:48:38;;;;;;;40.03;22.35;;;;;;;6.33;100.00;97130.19;5091975;28;20466;-75
2022/02/21 05:51:03;;;;;;;40.85;23.17;;;;;;;6.28;100.00;97116.66;5079939;28;20032;-73
2022/02/21 05:53:29;;;;;;;44.92;23.73;;;;;;;6.14;100.00;97111.09;5093630;28;20040;-74
2022/02/21 05:55:54;;;;;;;37.78;21.08;;;;;;;6.03;100.00;97106.88;5083117;28;20028;-74
2022/02/21 05:58:20;;;;;;;44.17;21.42;;;;;;;5.91;100.00;97104.56;5073126;28;20051;-75
2022/02/21 06:00:48;;;;;;;38.47;21.45;;;;;;;5.84;100.00;97108.66;5074606;28;20024;-87
2022/02/21 06:03:14;;;;;;;38.97;21.67;;;;;;;5.86;100.00;97110.03;5073322;28;20025;-75
2022/02/21 06:05:39;;;;;;;35.42;19.83;;;;;;;5.88;100.00;97107.03;5072869;28;20040;-74
2022/02/21 06:08:05;;;;;;;37.58;20.27;;;;;;;5.81;100.00;97109.25;5081689;28;20030;-74
2022/02/21 06:10:30;;;;;;;44.72;21.70;;;;;;;5.85;100.00;97096.72;5095728;28;20111;-74
2022/02/21 06:12:56;;;;;;;41.80;21.20;;;;;;;5.87;100.00;97091.84;5092980;28;20025;-74
2022/02/21 06:15:22;;;;;;;39.60;21.42;;;;;;;5.88;100.00;97088.03;5092624;28;20024;-74
2022/02/21 06:17:47;;;;;;;47.47;22.00;;;;;;;5.89;100.00;97089.66;5091930;28;20032;-75
2022/02/21 06:20:12;;;;;;;38.30;21.30;;;;;;;5.83;100.00;97085.34;5092851;28;20016;-75
2022/02/21 06:22:38;;;;;;;49.67;21.02;;;;;;;5.87;100.00;97083.72;5091556;28;20024;-74
2022/02/21 06:25:04;;;;;;;46.85;22.70;;;;;;;5.96;100.00;97081.97;5092836;28;20024;-74
2022/02/21 06:27:29;;;;;;;37.05;20.67;;;;;;;6.02;100.00;97072.69;5091396;28;20028;-74
2022/02/21 06:29:55;;;;;;;38.35;20.17;;;;;;;6.05;100.00;97069.41;5090236;28;20111;-75
2022/02/21 06:32:20;;;;;;;50.30;27.17;;;;;;;5.92;100.00;97054.59;5092570;28;20119;-76
2022/02/21 06:34:48;;;;;;;39.30;21.20;;;;;;;6.06;100.00;97053.94;5092446;28;20028;-76
2022/02/21 06:37:14;;;;;;;47.17;25.95;;;;;;;6.10;100.00;97050.34;5092467;28;20016;-75
2022/02/21 06:39:39;;;;;;;45.35;20.83;;;;;;;6.09;100.00;97048.72;5092709;28;20031;-75
2022/02/21 06:42:05;;;;;;;43.20;23.50;;;;;;;5.97;100.00;97036.66;5092373;28;20028;-75
2022/02/21 06:44:30;;;;;;;46.60;23.48;;;;;;;6.05;100.00;97023.25;5082550;28;20123;-75
2022/02/21 06:46:56;;;;;;;44.92;22.17;;;;;;;6.19;100.00;97032.34;5071070;28;20020;-76
2022/02/21 06:49:21;;;;;;;38.38;23.13;;;;;;;6.32;100.00;97031.63;5054232;28;20081;-76
2022/02/21 06:51:47;;;;;;;39.25;22.08;;;;;;;6.38;100.00;97021.50;5073594;28;20025;-74
2022/02/21 06:54:12;;;;;;;38.53;21.55;;;;;;;6.42;100.00;97015.19;5093383;28;20031;-75
2022/02/21 06:56:37;;;;;;;39.25;22.63;;;;;;;6.47;100.00;97006.16;5093600;28;20038;-75
2022/02/21 06:59:03;;;;;;;53.08;26.70;;;;;;;6.52;100.00;97008.00;5091001;28;20097;-75
2022/02/21 07:01:28;;;;;;;61.80;33.55;;;;;;;6.50;100.00;97005.59;5093441;28;20520;-75
2022/02/21 07:03:54;;;;;;;44.30;25.10;;;;;;;6.47;100.00;97006.16;5094595;28;20039;-76
2022/02/21 07:06:20;;;;;;;53.42;29.52;;;;;;;6.52;100.00;97013.44;5094115;28;20534;-80
2022/02/21 07:08:45;;;;;;;77.10;45.03;;;;;;;6.56;100.00;97009.03;5094059;28;20085;-77
2022/02/21 07:11:11;;;;;;;41.85;20.80;;;;;;;6.57;100.00;97010.66;5092421;28;20024;-76
2022/02/21 07:13:37;;;;;;;214.75;130.35;;;;;;;6.66;100.00;97008.91;5091285;28;20035;-75
2022/02/21 07:16:03;;;;;;;51.13;27.48;;;;;;;6.63;100.00;97007.59;5092085;28;20619;-75
2022/02/21 07:18:28;;;;;;;42.45;22.40;;;;;;;6.74;100.00;97000.06;5092177;28;20112;-76
2022/02/21 07:20:54;;;;;;;39.63;21.70;;;;;;;6.74;100.00;96991.91;5092133;28;20027;-75
2022/02/21 07:23:19;;;;;;;37.22;21.65;;;;;;;6.73;100.00;96984.91;5091624;28;20110;-75
2022/02/21 07:25:45;;;;;;;40.30;21.75;;;;;;;6.67;100.00;96991.50;5091692;28;20021;-75
2022/02/21 07:28:10;;;;;;;36.15;20.27;;;;;;;6.75;100.00;96986.22;5091721;28;20082;-76
2022/02/21 07:30:36;;;;;;;36.53;19.95;;;;;;;6.78;100.00;96990.25;5090160;28;20086;-75
2022/02/21 07:33:01;;;;;;;33.60;19.92;;;;;;;6.77;100.00;96994.06;5090621;28;20520;-76
2022/02/21 07:35:27;;;;;;;32.97;19.55;;;;;;;6.80;100.00;96988.84;5091500;28;20031;-74
2022/02/21 07:37:53;;;;;;;39.30;19.88;;;;;;;6.93;100.00;96987.28;5092725;28;20028;-76
2022/02/21 07:40:21;;;;;;;40.83;21.00;;;;;;;6.94;100.00;96988.91;5095506;28;20028;-78
2022/02/21 07:42:50;;;;;;;41.42;19.75;;;;;;;6.95;100.00;96979.66;5094487;28;20032;-77
2022/02/21 07:45:19;;;;;;;37.85;21.27;;;;;;;7.01;100.00;96981.19;5091827;28;20032;-74
2022/02/21 07:47:49;;;;;;;42.92;22.48;;;;;;;7.06;100.00;96983.00;5092163;28;20486;-75
2022/02/21 07:50:15;;;;;;;46.83;24.00;;;;;;;7.00;100.00;96979.56;5091924;28;20028;-75
2022/02/21 07:52:42;;;;;;;42.47;24.20;;;;;;;6.98;100.00;96979.06;5088375;28;20035;-76
2022/02/21 07:55:07;;;;;;;46.10;23.88;;;;;;;6.96;100.00;96976.63;5088506;28;20028;-75
2022/02/21 07:57:33;;;;;;;43.88;24.10;;;;;;;7.00;100.00;96976.84;5090030;28;20094;-75
2022/02/21 07:59:58;;;;;;;44.17;25.10;;;;;;;7.01;100.00;96964.88;5088522;28;20354;-76
2022/02/21 08:02:25;;;;;;;50.90;24.77;;;;;;;6.96;100.00;96964.94;5090168;28;20496;-74
2022/02/21 08:04:50;;;;;;;40.17;22.52;;;;;;;7.02;100.00;96980.06;5090904;28;20017;-75
2022/02/21 08:07:16;;;;;;;47.80;23.45;;;;;;;6.99;100.00;96975.22;5090207;28;20024;-75
2022/02/21 08:09:41;;;;;;;39.90;22.30;;;;;;;6.95;100.00;96975.00;5090106;28;20024;-75
2022/02/21 08:12:08;;;;;;;37.55;21.13;;;;;;;6.96;100.00;96976.63;5089647;28;21583;-75
2022/02/21 08:14:34;;;;;;;36.40;20.27;;;;;;;6.94;100.00;96972.59;5088725;28;20020;-75
2022/02/21 08:17:00;;;;;;;35.25;18.35;;;;;;;6.82;100.00;96953.22;5091732;28;20032;-76
2022/02/21 08:19:26;;;;;;;33.97;18.77;;;;;;;6.89;100.00;96951.72;5095650;28;20023;-74
2022/02/21 08:21:52;;;;;;;28.88;16.73;;;;;;;7.03;100.00;96953.69;5097981;28;20020;-75
2022/02/21 08:24:18;;;;;;;32.40;18.42;;;;;;;6.92;100.00;96948.41;5092938;28;20027;-75
2022/02/21 08:26:44;;;;;;;32.83;19.17;;;;;;;7.07;100.00;96949.28;5090199;28;20473;-75
2022/02/21 08:29:09;;;;;;;32.30;18.77;;;;;;;7.08;100.00;96946.25;5089930;28;20115;-76
2022/02/21 08:31:35;;;;;;;36.63;19.20;;;;;;;7.00;100.00;96941.50;5089874;28;20020;-76
2022/02/21 08:34:00;;;;;;;32.15;18.95;;;;;;;6.98;100.00;96927.41;5094749;28;20016;-75
2022/02/21 08:36:26;;;;;;;37.35;20.65;;;;;;;6.95;100.00;96923.34;5093144;28;20024;-75
2022/02/21 08:38:52;;;;;;;35.10;19.45;;;;;;;6.93;100.00;96922.88;5086054;28;20031;-74
2022/02/21 08:41:17;;;;;;;37.72;20.30;;;;;;;6.98;100.00;96930.13;5089436;28;20020;-76
2022/02/21 08:43:43;;;;;;;37.55;19.17;;;;;;;7.03;100.00;96916.44;5089659;28;20478;-76
2022/02/21 08:46:10;;;;;;;40.15;21.52;;;;;;;7.01;100.00;96921.38;5089841;28;20020;-75
2022/02/21 08:48:36;;;;;;;48.97;25.80;;;;;;;7.01;100.00;96907.78;5090746;28;20020;-75
2022/02/21 08:51:01;;;;;;;44.22;25.42;;;;;;;7.02;100.00;96900.44;5089699;28;20027;-79
2022/02/21 08:53:27;;;;;;;144.15;87.93;;;;;;;7.11;100.00;96888.56;5092818;28;20416;-75
2022/02/21 08:55:52;;;;;;;44.38;23.38;;;;;;;7.51;100.00;96887.03;5083594;28;20025;-76
2022/02/21 08:58:17;;;;;;;47.88;28.13;;;;;;;7.39;100.00;96879.34;5093392;28;20848;-76
2022/02/21 09:00:43;;;;;;;55.88;28.65;;;;;;;7.47;100.00;96884.09;5086291;28;20029;-75
2022/02/21 09:03:09;;;;;;;46.80;28.30;;;;;;;7.44;100.00;96876.53;5083687;28;20036;-74
2022/02/21 09:05:35;;;;;;;52.17;29.42;;;;;;;7.58;100.00;96881.19;5083189;28;20110;-76
2022/02/21 09:08:00;;;;;;;52.45;28.40;;;;;;;7.76;100.00;96885.69;5092169;28;20056;-76
2022/02/21 09:10:26;;;;;;;48.25;24.20;;;;;;;7.87;100.00;96871.56;5093704;28;20417;-77
2022/02/21 09:12:52;;;;;;;47.08;24.88;;;;;;;8.20;100.00;96872.22;5109429;28;20371;-74
2022/02/21 09:15:17;;;;;;;40.47;22.08;;;;;;;8.69;100.00;96860.47;5099550;28;20024;-74
2022/02/21 09:17:42;;;;;;;43.67;21.90;;;;;;;8.97;100.00;96861.94;5102055;28;20016;-76
2022/02/21 09:20:08;;;;;;;46.10;23.10;;;;;;;9.19;100.00;96850.19;5108633;28;20438;-75
2022/02/21 09:22:34;;;;;;;44.30;24.92;;;;;;;9.50;100.00;96844.69;5097704;28;20428;-76
2022/02/21 09:24:59;;;;;;;62.53;29.27;;;;;;;9.76;100.00;96847.50;5109147;28;20016;-74
2022/02/21 09:27:25;;;;;;;53.70;28.05;;;;;;;9.83;100.00;96845.13;5102945;28;20027;-75
2022/02/21 09:29:50;;;;;;;50.65;27.33;;;;;;;10.16;100.00;96838.13;5102228;28;20024;-76
2022/02/21 09:32:15;;;;;;;45.45;24.63;;;;;;;10.47;100.00;96836.06;5109703;28;20020;-75
2022/02/21 09:34:41;;;;;;;52.00;25.63;;;;;;;10.66;100.00;96831.06;5095771;28;20477;-75
2022/02/21 09:37:07;;;;;;;41.97;25.30;;;;;;;10.44;100.00;96833.16;5108049;28;20024;-76
2022/02/21 09:39:33;;;;;;;52.72;26.73;;;;;;;10.22;100.00;96828.66;5103551;28;20160;-75
2022/02/21 09:41:59;;;;;;;53.53;27.38;;;;;;;10.42;100.00;96825.28;5102854;28;20114;-75
2022/02/21 09:44:25;;;;;;;48.70;25.83;;;;;;;10.33;100.00;96821.75;5110669;28;20023;-75
2022/02/21 09:46:50;;;;;;;45.42;25.52;;;;;;;10.05;100.00;96815.75;5097596;28;20031;-77
2022/02/21 09:49:17;;;;;;;49.35;25.80;;;;;;;9.68;100.00;96821.78;5107734;28;20465;-76
2022/02/21 09:51:43;;;;;;;52.38;27.63;;;;;;;9.36;100.00;96820.25;5110019;28;20040;-79
2022/02/21 09:54:13;;;;;;;50.33;27.05;;;;;;;9.31;100.00;96825.03;5114696;28;20102;-76
2022/02/21 09:56:38;;;;;;;51.15;27.38;;;;;;;9.30;100.00;96813.31;5095300;28;20031;-74
2022/02/21 09:59:04;;;;;;;48.30;28.17;;;;;;;9.24;100.00;96814.56;5106627;28;20473;-76
2022/02/21 10:01:29;;;;;;;52.13;27.92;;;;;;;9.35;100.00;96823.28;5100534;28;20066;-77
2022/02/21 10:03:57;;;;;;;54.08;27.98;;;;;;;9.52;100.00;96813.22;5092672;28;20028;-73
2022/02/21 10:06:25;;;;;;;52.33;27.33;;;;;;;9.56;100.00;96816.94;5109826;28;20492;-75
2022/02/21 10:09:08;;;;;;;62.50;30.88;;;;;;;9.44;100.00;96810.47;5088376;28;20024;-76
2022/02/21 10:11:39;;;;;;;58.03;31.40;;;;;;;9.38;100.00;96800.81;5103463;28;20024;-77
2022/02/21 10:14:22;;;;;;;88.45;38.05;;;;;;;9.50;100.00;96787.38;5106947;28;20110;-75
2022/02/21 10:16:53;;;;;;;97.43;41.78;;;;;;;9.80;100.00;96782.94;5096946;28;20023;-75
2022/02/21 10:19:23;;;;;;;107.90;44.63;;;;;;;9.75;100.00;96786.63;5105539;28;20020;-76
2022/02/21 10:22:11;;;;;;;68.70;33.92;;;;;;;9.71;100.00;96776.66;5104754;28;20554;-75
2022/02/21 10:24:38;;;;;;;77.43;34.22;;;;;;;9.72;100.00;96773.59;5096170;28;20032;-74
2022/02/21 10:27:29;;;;;;;64.78;33.67;;;;;;;9.48;100.00;96771.31;5107478;28;20027;-75
2022/02/21 10:30:00;;;;;;;56.58;31.08;;;;;;;9.52;100.00;96766.81;5105491;28;20027;-76
2022/02/21 10:32:28;;;;;;;56.78;30.10;;;;;;;9.46;100.00;96768.09;5096013;28;20055;-77
2022/02/21 10:34:55;;;;;;;61.13;32.72;;;;;;;9.38;100.00;96760.69;5109094;28;20473;-76
2022/02/21 10:37:21;;;;;;;57.10;30.35;;;;;;;9.41;100.00;96768.25;5103759;28;20169;-75
2022/02/21 10:39:48;;;;;;;53.47;29.17;;;;;;;9.42;100.00;96761.69;5113096;28;20024;-75
2022/02/21 10:42:24;;;;;;;56.28;31.33;;;;;;;9.36;100.00;96770.31;5097620;28;20401;-75
2022/02/21 10:44:50;;;;;;;56.83;29.13;;;;;;;9.31;100.00;96763.06;5078109;28;20469;-75
2022/02/21 10:47:17;;;;;;;57.63;28.55;;;;;;;9.40;100.00;96754.91;5105892;28;20024;-75
2022/02/21 10:50:04;;;;;;;58.80;28.23;;;;;;;9.56;100.00;96751.41;5103395;28;20114;-75
2022/02/21 10:52:35;;;;;;;54.97;29.75;;;;;;;9.52;100.00;96752.38;5095679;28;20024;-75
2022/02/21 10:55:01;;;;;;;52.70;27.25;;;;;;;9.58;100.00;96762.84;5107286;28;20026;-75
2022/02/21 10:57:28;;;;;;;55.90;28.48;;;;;;;9.69;100.00;96758.69;5100925;28;20052;-76
2022/02/21 10:59:55;;;;;;;47.47;27.45;;;;;;;9.61;100.00;96751.28;5099782;28;20024;-75
2022/02/21 11:02:21;;;;;;;48.20;27.05;;;;;;;9.67;100.00;96743.75;5108641;28;20024;-76
2022/02/21 11:04:47;;;;;;;41.42;22.77;;;;;;;9.67;100.00;96739.09;5094995;28;20756;-75
2022/02/21 11:07:14;;;;;;;32.35;18.42;;;;;;;9.80;100.00;96742.00;5105190;28;20024;-75
2022/02/21 11:09:42;;;;;;;35.47;16.95;;;;;;;9.87;100.00;96742.28;5102083;28;20427;-76
2022/02/21 11:12:09;;;;;;;26.13;13.73;;;;;;;9.98;100.00;96738.94;5097494;28;20024;-77